Time;durP1;ratioP1;P1;durP2;ratioP2;P2;SDS_P1;SDS_P2;PMS_P1;PMS_P2;Temp;Humidity;BMP_temperature;BMP_pressure;BME280_temperature;BME280_humidity;BME280_pressure;Samples;Min_cycle;Max_cycle;Signal;HPM_P1;HPM_P2
2020/12/06 00:01:07;;;;;;;45.63;22.13;;;;;;;;;;2056794;28;20031;-85
2020/12/06 00:02:25;;;;;;;44.78;22.45;;;;;;;;;;2055067;28;20499;-85
2020/12/06 00:03:44;;;;;;;46.08;22.98;;;;;;;;;;2057828;28;20060;-86
2020/12/06 00:05:10;;;;;;;41.38;21.88;;;;;;;;;;2054536;28;20031;-85
2020/12/06 00:06:30;;;;;;;41.42;22.05;;;;;;;;;;2063322;28;20030;-86
2020/12/06 00:07:49;;;;;;;38.50;22.23;;;;;;;;;;2057511;28;20039;-84
2020/12/06 00:09:08;;;;;;;41.38;22.55;;;;;;;;;;2051174;28;20027;-85
2020/12/06 00:10:26;;;;;;;42.85;22.70;;;;;;;;;;2053214;28;20046;-86
2020/12/06 00:11:45;;;;;;;40.50;21.77;;;;;;;;;;2051894;28;20503;-86
2020/12/06 00:13:04;;;;;;;40.90;21.63;;;;;;;;;;2053094;28;20102;-86
2020/12/06 00:14:23;;;;;;;40.28;23.83;;;;;;;;;;2051911;28;20035;-85
2020/12/06 00:15:42;;;;;;;39.95;22.17;;;;;;;;;;2050701;28;20059;-86
2020/12/06 00:17:00;;;;;;;41.25;21.33;;;;;;;;;;2058187;28;20023;-86
2020/12/06 00:18:19;;;;;;;41.67;22.75;;;;;;;;;;2057582;28;20046;-85
2020/12/06 00:19:38;;;;;;;39.28;20.30;;;;;;;;;;2055078;28;20035;-85
2020/12/06 00:20:57;;;;;;;39.30;21.52;;;;;;;;;;2052636;28;20090;-85
2020/12/06 00:22:16;;;;;;;37.88;22.83;;;;;;;;;;2057185;28;20088;-86
2020/12/06 00:23:35;;;;;;;40.55;21.80;;;;;;;;;;2057893;28;20467;-85
2020/12/06 00:24:54;;;;;;;43.15;21.95;;;;;;;;;;2056009;28;20026;-87
2020/12/06 00:26:33;;;;;;;42.15;21.52;;;;;;;;;;2055577;28;20046;-86
2020/12/06 00:27:52;;;;;;;40.22;21.33;;;;;;;;;;2065447;28;20031;-86
2020/12/06 00:29:11;;;;;;;40.25;23.10;;;;;;;;;;2057540;28;20071;-86
2020/12/06 00:30:30;;;;;;;47.33;22.73;;;;;;;;;;2053842;28;20026;-87
2020/12/06 00:31:48;;;;;;;42.13;22.38;;;;;;;;;;2054696;28;20251;-85
2020/12/06 00:33:08;;;;;;;38.15;21.98;;;;;;;;;;2056554;28;20026;-86
2020/12/06 00:34:26;;;;;;;41.60;22.02;;;;;;;;;;2058666;28;20450;-86
2020/12/06 00:35:45;;;;;;;42.88;22.10;;;;;;;;;;2056788;28;20118;-85
2020/12/06 00:37:04;;;;;;;41.70;22.95;;;;;;;;;;2055462;28;20019;-86
2020/12/06 00:38:23;;;;;;;43.33;23.45;;;;;;;;;;2054309;28;20019;-85
2020/12/06 00:39:43;;;;;;;41.17;22.30;;;;;;;;;;2052327;28;20055;-85
2020/12/06 00:41:04;;;;;;;39.35;22.42;;;;;;;;;;2052953;28;20485;-85
2020/12/06 00:42:23;;;;;;;44.10;22.65;;;;;;;;;;2053351;28;20023;-87
2020/12/06 00:43:42;;;;;;;45.25;23.75;;;;;;;;;;2051782;28;20022;-86
2020/12/06 00:45:02;;;;;;;52.05;21.92;;;;;;;;;;2053541;28;20031;-85
2020/12/06 00:46:22;;;;;;;45.85;22.27;;;;;;;;;;2057897;28;20062;-86
2020/12/06 00:47:41;;;;;;;39.35;21.80;;;;;;;;;;2058706;28;20031;-85
2020/12/06 00:48:59;;;;;;;44.40;22.50;;;;;;;;;;2051283;28;20034;-85
2020/12/06 00:50:18;;;;;;;42.22;23.17;;;;;;;;;;2051831;28;20406;-85
2020/12/06 00:51:37;;;;;;;42.75;23.23;;;;;;;;;;2055158;28;20463;-85
2020/12/06 00:52:55;;;;;;;43.60;22.77;;;;;;;;;;2052447;28;20117;-85
2020/12/06 00:54:14;;;;;;;42.95;23.00;;;;;;;;;;2052801;28;20125;-85
2020/12/06 00:55:32;;;;;;;42.78;22.83;;;;;;;;;;2051887;28;20035;-85
2020/12/06 00:56:57;;;;;;;48.92;24.52;;;;;;;;;;2056811;28;20027;-85
2020/12/06 00:58:16;;;;;;;44.05;22.85;;;;;;;;;;2054333;28;20027;-85
2020/12/06 00:59:35;;;;;;;39.22;22.50;;;;;;;;;;2049809;28;20031;-84
2020/12/06 01:00:54;;;;;;;47.10;23.55;;;;;;;;;;2054305;28;20039;-85
2020/12/06 01:02:13;;;;;;;43.13;23.08;;;;;;;;;;2051934;28;20035;-84
2020/12/06 01:03:32;;;;;;;52.65;24.58;;;;;;;;;;2052634;28;20039;-85
2020/12/06 01:04:51;;;;;;;43.33;23.92;;;;;;;;;;2055026;28;20031;-85
2020/12/06 01:06:16;;;;;;;48.47;22.40;;;;;;;;;;2053431;28;20027;-84
2020/12/06 01:07:36;;;;;;;44.22;23.92;;;;;;;;;;2053406;28;20047;-85
2020/12/06 01:08:55;;;;;;;50.97;23.17;;;;;;;;;;2055462;28;20027;-85
2020/12/06 01:10:14;;;;;;;44.38;22.52;;;;;;;;;;2052420;28;20031;-86
2020/12/06 01:11:33;;;;;;;46.72;24.58;;;;;;;;;;2054545;28;20038;-84
2020/12/06 01:12:52;;;;;;;44.13;24.05;;;;;;;;;;2058436;28;20422;-86
2020/12/06 01:14:11;;;;;;;38.95;21.88;;;;;;;;;;2051389;28;20546;-84
2020/12/06 01:15:30;;;;;;;48.05;23.38;;;;;;;;;;2052447;28;20031;-84
2020/12/06 01:16:49;;;;;;;47.35;22.17;;;;;;;;;;2059762;28;20216;-84
2020/12/06 01:18:08;;;;;;;51.53;23.23;;;;;;;;;;2057817;28;20035;-85
2020/12/06 01:19:28;;;;;;;51.95;24.30;;;;;;;;;;2056142;28;20015;-84
2020/12/06 01:20:46;;;;;;;45.67;22.73;;;;;;;;;;2058084;28;20511;-84
2020/12/06 01:22:05;;;;;;;42.53;23.90;;;;;;;;;;2058068;28;20026;-83
2020/12/06 01:23:24;;;;;;;41.05;22.15;;;;;;;;;;2055703;28;20113;-82
2020/12/06 01:24:43;;;;;;;47.58;23.40;;;;;;;;;;2057829;28;20030;-82
2020/12/06 01:26:02;;;;;;;51.22;23.08;;;;;;;;;;2046238;29;20035;-84
2020/12/06 01:27:21;;;;;;;44.53;22.73;;;;;;;;;;2051770;28;20035;-83
2020/12/06 01:28:39;;;;;;;42.20;22.00;;;;;;;;;;2057912;28;20031;-84
2020/12/06 01:29:58;;;;;;;46.78;22.80;;;;;;;;;;2057711;28;20038;-82
2020/12/06 01:31:18;;;;;;;40.72;22.45;;;;;;;;;;2058948;28;20027;-84
2020/12/06 01:32:37;;;;;;;45.15;23.75;;;;;;;;;;2058034;28;20031;-85
2020/12/06 01:33:56;;;;;;;45.80;22.42;;;;;;;;;;2058364;28;20043;-83
2020/12/06 01:35:14;;;;;;;46.22;22.70;;;;;;;;;;2058357;28;20435;-83
2020/12/06 01:36:33;;;;;;;46.17;23.73;;;;;;;;;;2056675;28;20019;-83
2020/12/06 01:37:52;;;;;;;47.92;24.00;;;;;;;;;;2057161;28;20106;-84
2020/12/06 01:39:11;;;;;;;40.75;21.70;;;;;;;;;;2054516;28;20495;-83
2020/12/06 01:40:30;;;;;;;46.20;24.13;;;;;;;;;;2055958;28;20035;-83
2020/12/06 01:41:52;;;;;;;44.92;23.77;;;;;;;;;;2053920;28;20031;-83
2020/12/06 01:43:10;;;;;;;41.28;22.55;;;;;;;;;;2055983;28;20064;-83
2020/12/06 01:44:29;;;;;;;43.80;22.70;;;;;;;;;;2051944;28;20039;-82
2020/12/06 01:45:48;;;;;;;40.63;22.73;;;;;;;;;;2052797;28;20055;-83
2020/12/06 01:47:07;;;;;;;48.60;23.08;;;;;;;;;;2056832;28;20051;-85
2020/12/06 01:48:26;;;;;;;43.58;21.92;;;;;;;;;;2054828;28;20051;-84
2020/12/06 01:49:45;;;;;;;41.72;22.30;;;;;;;;;;2054803;28;20034;-85
2020/12/06 01:51:04;;;;;;;49.38;24.92;;;;;;;;;;2053011;28;20035;-85
2020/12/06 01:52:23;;;;;;;41.67;22.98;;;;;;;;;;2050786;28;20078;-84
2020/12/06 01:53:42;;;;;;;47.22;22.50;;;;;;;;;;2051146;28;20036;-84
2020/12/06 01:55:02;;;;;;;44.10;22.38;;;;;;;;;;2054026;28;20034;-84
2020/12/06 01:56:21;;;;;;;40.42;23.00;;;;;;;;;;2056761;28;20479;-84
2020/12/06 01:57:40;;;;;;;49.08;22.92;;;;;;;;;;2057400;28;20102;-84
2020/12/06 01:58:59;;;;;;;46.10;24.25;;;;;;;;;;2052959;28;20031;-83
2020/12/06 02:00:18;;;;;;;42.17;22.77;;;;;;;;;;2053967;28;20031;-85
2020/12/06 02:01:38;;;;;;;40.50;23.70;;;;;;;;;;2055238;28;20034;-84
2020/12/06 02:02:58;;;;;;;39.03;21.92;;;;;;;;;;2053946;28;20031;-84
2020/12/06 02:04:17;;;;;;;42.88;23.25;;;;;;;;;;2055083;28;20026;-83
2020/12/06 02:05:37;;;;;;;47.88;23.42;;;;;;;;;;2053303;28;20035;-83
2020/12/06 02:06:57;;;;;;;44.70;22.90;;;;;;;;;;2058092;28;20030;-84
2020/12/06 02:08:16;;;;;;;45.88;24.95;;;;;;;;;;2056919;28;20472;-84
2020/12/06 02:09:35;;;;;;;47.35;23.80;;;;;;;;;;2055319;28;20034;-83
2020/12/06 02:10:54;;;;;;;47.47;22.73;;;;;;;;;;2054511;28;20039;-84
2020/12/06 02:12:13;;;;;;;43.58;23.35;;;;;;;;;;2059397;28;20030;-84
2020/12/06 02:13:32;;;;;;;45.63;24.10;;;;;;;;;;2052082;28;20042;-84
2020/12/06 02:14:51;;;;;;;45.17;23.85;;;;;;;;;;2054169;28;20043;-84
2020/12/06 02:16:13;;;;;;;41.75;22.30;;;;;;;;;;2052299;28;20371;-84
2020/12/06 02:17:32;;;;;;;44.60;24.08;;;;;;;;;;2053585;28;20030;-84
2020/12/06 02:18:51;;;;;;;48.88;23.08;;;;;;;;;;2055554;28;20105;-85
2020/12/06 02:20:10;;;;;;;47.00;23.92;;;;;;;;;;2058362;28;20450;-84
2020/12/06 02:21:29;;;;;;;44.15;24.00;;;;;;;;;;2054500;28;20125;-85
2020/12/06 02:22:48;;;;;;;45.22;23.95;;;;;;;;;;2057765;28;20026;-84
2020/12/06 02:24:08;;;;;;;42.95;22.83;;;;;;;;;;2055049;28;20031;-83
2020/12/06 02:25:27;;;;;;;44.30;22.95;;;;;;;;;;2057162;28;20035;-83
2020/12/06 02:26:50;;;;;;;45.65;23.67;;;;;;;;;;2049034;28;20498;-84
2020/12/06 02:28:10;;;;;;;44.65;22.98;;;;;;;;;;2066861;28;20031;-85
2020/12/06 02:29:29;;;;;;;49.22;23.83;;;;;;;;;;2057992;28;20038;-85
2020/12/06 02:30:49;;;;;;;47.70;24.77;;;;;;;;;;2058902;28;20074;-85
2020/12/06 02:32:07;;;;;;;52.17;25.33;;;;;;;;;;2060848;28;20018;-84
2020/12/06 02:33:26;;;;;;;44.17;23.38;;;;;;;;;;2061118;28;20117;-86
2020/12/06 02:34:45;;;;;;;48.03;24.35;;;;;;;;;;2052392;28;20118;-85
2020/12/06 02:36:04;;;;;;;46.78;23.73;;;;;;;;;;2052808;28;20030;-85
2020/12/06 02:37:23;;;;;;;50.03;24.08;;;;;;;;;;2054540;28;20123;-85
2020/12/06 02:38:42;;;;;;;42.15;22.48;;;;;;;;;;2050876;28;20086;-86
2020/12/06 02:40:01;;;;;;;43.00;23.45;;;;;;;;;;2049839;28;20031;-85
2020/12/06 02:41:20;;;;;;;45.45;24.60;;;;;;;;;;2055133;28;20027;-84
2020/12/06 02:42:38;;;;;;;47.58;23.92;;;;;;;;;;2052644;28;20030;-87
2020/12/06 02:43:58;;;;;;;45.97;23.98;;;;;;;;;;2054547;28;20038;-85
2020/12/06 02:45:17;;;;;;;47.53;24.45;;;;;;;;;;2056301;28;20105;-85
2020/12/06 02:46:35;;;;;;;43.17;23.58;;;;;;;;;;2055721;28;20058;-85
2020/12/06 02:47:54;;;;;;;47.25;24.75;;;;;;;;;;2057183;28;20027;-85
2020/12/06 02:49:14;;;;;;;41.10;23.40;;;;;;;;;;2047169;28;20023;-86
2020/12/06 02:50:35;;;;;;;49.72;24.42;;;;;;;;;;2054664;28;20035;-84
2020/12/06 02:51:57;;;;;;;44.35;23.55;;;;;;;;;;2064978;28;20039;-86
2020/12/06 02:53:20;;;;;;;48.50;24.50;;;;;;;;;;2056790;28;20043;-87
2020/12/06 02:54:47;;;;;;;49.03;24.55;;;;;;;;;;2057143;28;20031;-86
2020/12/06 02:56:06;;;;;;;50.53;24.40;;;;;;;;;;2055331;28;20503;-86
2020/12/06 02:57:25;;;;;;;47.80;24.73;;;;;;;;;;2056476;28;20031;-87
2020/12/06 02:58:43;;;;;;;54.83;25.23;;;;;;;;;;2056801;28;20557;-87
2020/12/06 03:00:03;;;;;;;46.10;25.15;;;;;;;;;;2052459;28;20023;-87
2020/12/06 03:01:29;;;;;;;51.17;24.88;;;;;;;;;;2051466;28;20491;-86
2020/12/06 03:02:48;;;;;;;42.60;23.80;;;;;;;;;;2049316;28;20039;-86
2020/12/06 03:04:07;;;;;;;45.17;22.25;;;;;;;;;;2048073;28;20499;-87
2020/12/06 03:05:26;;;;;;;49.70;24.42;;;;;;;;;;2053667;28;20031;-87
2020/12/06 03:06:44;;;;;;;53.13;24.77;;;;;;;;;;2052932;28;20035;-86
2020/12/06 03:08:03;;;;;;;46.30;24.52;;;;;;;;;;2061008;28;20502;-87
2020/12/06 03:09:23;;;;;;;51.97;24.55;;;;;;;;;;2051344;28;20046;-87
2020/12/06 03:10:41;;;;;;;50.13;24.52;;;;;;;;;;2050180;28;20030;-86
2020/12/06 03:12:00;;;;;;;44.53;24.17;;;;;;;;;;2051803;28;20034;-84
2020/12/06 03:13:22;;;;;;;47.05;23.73;;;;;;;;;;2050110;28;20055;-84
2020/12/06 03:14:41;;;;;;;49.35;24.48;;;;;;;;;;2057187;28;20035;-86
2020/12/06 03:16:00;;;;;;;44.55;22.85;;;;;;;;;;2054570;28;20030;-84
2020/12/06 03:17:20;;;;;;;54.55;25.23;;;;;;;;;;2053292;28;20395;-87
2020/12/06 03:18:39;;;;;;;45.13;23.92;;;;;;;;;;2058985;28;20109;-86
2020/12/06 03:19:59;;;;;;;48.22;25.42;;;;;;;;;;2057052;28;20026;-86
2020/12/06 03:21:18;;;;;;;51.22;25.25;;;;;;;;;;2054113;28;20027;-87
2020/12/06 03:22:36;;;;;;;50.33;25.02;;;;;;;;;;2051586;28;20121;-85
2020/12/06 03:23:55;;;;;;;49.25;24.60;;;;;;;;;;2047342;28;20059;-85
2020/12/06 03:25:14;;;;;;;51.67;25.40;;;;;;;;;;2049432;28;20031;-85
2020/12/06 03:26:33;;;;;;;42.20;23.85;;;;;;;;;;2054032;28;20113;-86
2020/12/06 03:27:51;;;;;;;42.80;24.38;;;;;;;;;;2054988;28;20035;-85
2020/12/06 03:29:10;;;;;;;46.42;23.90;;;;;;;;;;2055327;28;20027;-85
2020/12/06 03:30:29;;;;;;;46.78;24.35;;;;;;;;;;2044386;28;20031;-84
2020/12/06 03:31:48;;;;;;;48.55;25.05;;;;;;;;;;2046688;28;20035;-84
2020/12/06 03:33:07;;;;;;;42.63;24.40;;;;;;;;;;2052496;28;20035;-84
2020/12/06 03:34:26;;;;;;;45.53;23.70;;;;;;;;;;2054503;28;20062;-84
2020/12/06 03:35:45;;;;;;;45.28;23.20;;;;;;;;;;2059744;28;20027;-83
2020/12/06 03:37:04;;;;;;;44.13;24.15;;;;;;;;;;2053838;28;20118;-82
2020/12/06 03:38:23;;;;;;;51.20;25.75;;;;;;;;;;2054817;28;20027;-83
2020/12/06 03:39:42;;;;;;;42.88;23.65;;;;;;;;;;2054129;28;20035;-85
2020/12/06 03:41:01;;;;;;;48.40;26.00;;;;;;;;;;2049364;28;20023;-84
2020/12/06 03:42:20;;;;;;;48.80;25.70;;;;;;;;;;2052051;28;20098;-83
2020/12/06 03:43:39;;;;;;;52.28;25.33;;;;;;;;;;2055670;28;20455;-83
2020/12/06 03:44:58;;;;;;;47.80;24.85;;;;;;;;;;2055966;28;20043;-84
2020/12/06 03:46:17;;;;;;;46.10;24.85;;;;;;;;;;2050612;28;20038;-84
2020/12/06 03:47:36;;;;;;;46.67;24.98;;;;;;;;;;2051869;28;20031;-84
2020/12/06 03:48:54;;;;;;;45.70;24.25;;;;;;;;;;2049963;28;20495;-83
2020/12/06 03:50:14;;;;;;;46.75;23.10;;;;;;;;;;2056578;28;20066;-86
2020/12/06 03:51:33;;;;;;;50.30;26.05;;;;;;;;;;2054341;28;20117;-86
2020/12/06 03:52:52;;;;;;;52.88;25.02;;;;;;;;;;2054812;28;20031;-86
2020/12/06 03:54:11;;;;;;;43.97;24.02;;;;;;;;;;2055487;28;20043;-85
2020/12/06 03:55:30;;;;;;;47.33;23.05;;;;;;;;;;2055896;28;20547;-86
2020/12/06 03:56:49;;;;;;;45.88;24.77;;;;;;;;;;2059331;28;20031;-85
2020/12/06 03:58:08;;;;;;;41.72;25.75;;;;;;;;;;2060225;28;20023;-86
2020/12/06 03:59:27;;;;;;;54.47;24.15;;;;;;;;;;2060200;28;20035;-85
2020/12/06 04:00:46;;;;;;;46.95;24.48;;;;;;;;;;2063534;28;20030;-86
2020/12/06 04:02:05;;;;;;;48.15;23.77;;;;;;;;;;2059255;28;20476;-86
2020/12/06 04:03:23;;;;;;;45.30;25.80;;;;;;;;;;2056902;28;20038;-85
2020/12/06 04:04:42;;;;;;;47.72;24.98;;;;;;;;;;2056724;28;20034;-85
2020/12/06 04:06:01;;;;;;;49.50;25.40;;;;;;;;;;2055108;28;20027;-88
2020/12/06 04:07:20;;;;;;;49.85;25.23;;;;;;;;;;2057440;28;20030;-83
2020/12/06 04:08:39;;;;;;;52.17;24.38;;;;;;;;;;2057039;28;20042;-85
2020/12/06 04:09:58;;;;;;;45.90;25.40;;;;;;;;;;2055763;28;20036;-85
2020/12/06 04:11:18;;;;;;;50.30;26.83;;;;;;;;;;2050879;28;20039;-86
2020/12/06 04:12:37;;;;;;;53.85;26.73;;;;;;;;;;2057698;28;20030;-86
2020/12/06 04:13:56;;;;;;;49.90;26.15;;;;;;;;;;2053891;28;20027;-84
2020/12/06 04:15:14;;;;;;;48.67;24.35;;;;;;;;;;2058344;28;20019;-84
2020/12/06 04:16:33;;;;;;;44.72;24.08;;;;;;;;;;2055747;28;20058;-85
2020/12/06 04:17:52;;;;;;;50.63;26.38;;;;;;;;;;2048851;28;20028;-85
2020/12/06 04:19:10;;;;;;;49.38;24.27;;;;;;;;;;2049968;28;20424;-84
2020/12/06 04:20:29;;;;;;;44.65;25.45;;;;;;;;;;2056423;28;20034;-85
2020/12/06 04:21:48;;;;;;;45.85;25.38;;;;;;;;;;2054283;28;20031;-87
2020/12/06 04:23:06;;;;;;;50.00;25.77;;;;;;;;;;2059857;28;20446;-87
2020/12/06 04:24:25;;;;;;;49.60;26.08;;;;;;;;;;2053617;28;20490;-86
2020/12/06 04:25:44;;;;;;;49.53;26.23;;;;;;;;;;2054061;28;20018;-87
2020/12/06 04:27:03;;;;;;;47.33;26.83;;;;;;;;;;2053915;28;20030;-87
2020/12/06 04:28:22;;;;;;;45.22;25.30;;;;;;;;;;2057764;28;20468;-87
2020/12/06 04:29:41;;;;;;;43.90;25.85;;;;;;;;;;2055095;28;20052;-85
2020/12/06 04:31:00;;;;;;;49.92;26.35;;;;;;;;;;2052864;28;20379;-86
2020/12/06 04:32:19;;;;;;;51.03;25.67;;;;;;;;;;2058322;28;20519;-88
2020/12/06 04:33:38;;;;;;;48.03;26.00;;;;;;;;;;2055727;28;20043;-86
2020/12/06 04:34:56;;;;;;;47.35;26.42;;;;;;;;;;2057180;28;20035;-87
2020/12/06 04:36:15;;;;;;;48.58;25.33;;;;;;;;;;2058353;28;20494;-89
2020/12/06 04:37:35;;;;;;;50.40;25.85;;;;;;;;;;2054150;28;20038;-86
2020/12/06 04:38:53;;;;;;;51.88;25.23;;;;;;;;;;2060409;28;20026;-87
2020/12/06 04:40:12;;;;;;;44.22;24.38;;;;;;;;;;2057339;28;20023;-86
2020/12/06 04:41:31;;;;;;;49.90;25.70;;;;;;;;;;2054297;28;20027;-87
2020/12/06 04:42:50;;;;;;;48.80;27.52;;;;;;;;;;2058548;28;20030;-86
2020/12/06 04:44:09;;;;;;;48.70;26.52;;;;;;;;;;2059291;28;20031;-85
2020/12/06 04:45:28;;;;;;;51.35;27.30;;;;;;;;;;2054342;28;20051;-87
2020/12/06 04:46:47;;;;;;;46.35;24.92;;;;;;;;;;2057855;28;20027;-84
2020/12/06 04:48:08;;;;;;;56.92;26.27;;;;;;;;;;2052986;28;20027;-86
2020/12/06 04:49:42;;;;;;;53.17;25.40;;;;;;;;;;2051509;28;20114;-85
2020/12/06 04:51:04;;;;;;;46.70;25.52;;;;;;;;;;2050749;28;20027;-83
2020/12/06 04:52:25;;;;;;;50.65;26.35;;;;;;;;;;2051601;28;20036;-85
2020/12/06 04:53:51;;;;;;;47.13;25.83;;;;;;;;;;2056390;28;20471;-85
2020/12/06 04:55:13;;;;;;;50.75;26.33;;;;;;;;;;2054910;28;20386;-85
2020/12/06 04:56:32;;;;;;;46.47;26.10;;;;;;;;;;2059400;28;20038;-86
2020/12/06 04:57:53;;;;;;;44.28;25.25;;;;;;;;;;2052597;28;20464;-85
2020/12/06 04:59:14;;;;;;;47.38;26.08;;;;;;;;;;2055929;28;20035;-84
2020/12/06 05:00:34;;;;;;;46.05;24.42;;;;;;;;;;2048268;28;20474;-84
2020/12/06 05:01:56;;;;;;;50.50;25.00;;;;;;;;;;2054862;28;20480;-84
2020/12/06 05:03:15;;;;;;;49.13;26.15;;;;;;;;;;2054568;28;20031;-84
2020/12/06 05:04:36;;;;;;;49.22;25.55;;;;;;;;;;2056604;28;20054;-85
2020/12/06 05:05:55;;;;;;;48.78;26.08;;;;;;;;;;2056246;28;20023;-84
2020/12/06 05:07:18;;;;;;;53.72;27.40;;;;;;;;;;2054821;28;20387;-85
2020/12/06 05:08:38;;;;;;;50.60;25.13;;;;;;;;;;2054120;28;20027;-84
2020/12/06 05:10:00;;;;;;;46.35;25.92;;;;;;;;;;2049692;28;20030;-84
2020/12/06 05:11:19;;;;;;;47.42;25.48;;;;;;;;;;2055889;28;20400;-83
2020/12/06 05:12:38;;;;;;;48.75;26.27;;;;;;;;;;2062935;28;20034;-84
2020/12/06 05:13:57;;;;;;;48.47;26.05;;;;;;;;;;2053388;28;20033;-85
2020/12/06 05:15:16;;;;;;;50.42;24.85;;;;;;;;;;2050483;28;20035;-84
2020/12/06 05:16:39;;;;;;;48.92;26.65;;;;;;;;;;2050887;28;20031;-85
2020/12/06 05:17:58;;;;;;;51.85;25.73;;;;;;;;;;2054857;28;20122;-84
2020/12/06 05:19:17;;;;;;;52.60;27.02;;;;;;;;;;2050353;28;20098;-84
2020/12/06 05:20:37;;;;;;;47.60;27.60;;;;;;;;;;2052105;28;20023;-84
2020/12/06 05:21:56;;;;;;;47.42;26.55;;;;;;;;;;2056289;28;20027;-85
2020/12/06 05:23:16;;;;;;;47.10;26.10;;;;;;;;;;2051212;28;20038;-84
2020/12/06 05:24:35;;;;;;;47.28;24.90;;;;;;;;;;2052370;28;20031;-84
2020/12/06 05:25:54;;;;;;;49.58;26.77;;;;;;;;;;2053261;28;20027;-84
2020/12/06 05:27:14;;;;;;;47.17;26.08;;;;;;;;;;2053642;28;20030;-84
2020/12/06 05:28:33;;;;;;;47.88;25.83;;;;;;;;;;2054931;28;20027;-84
2020/12/06 05:29:52;;;;;;;53.80;28.00;;;;;;;;;;2049783;28;20031;-84
2020/12/06 05:31:11;;;;;;;48.55;26.58;;;;;;;;;;2050501;28;20039;-84
2020/12/06 05:32:30;;;;;;;48.15;25.83;;;;;;;;;;2052594;28;20090;-84
2020/12/06 05:33:49;;;;;;;51.55;26.70;;;;;;;;;;2051905;28;20039;-83
2020/12/06 05:35:10;;;;;;;54.17;27.50;;;;;;;;;;2057325;28;20027;-83
2020/12/06 05:36:29;;;;;;;50.40;26.77;;;;;;;;;;2054090;28;20411;-82
2020/12/06 05:37:49;;;;;;;50.25;27.45;;;;;;;;;;2053950;28;20034;-83
2020/12/06 05:39:07;;;;;;;51.90;26.95;;;;;;;;;;2049704;28;20026;-83
2020/12/06 05:40:26;;;;;;;50.83;26.10;;;;;;;;;;2052503;28;20023;-83
2020/12/06 05:41:47;;;;;;;53.67;26.10;;;;;;;;;;2054266;28;20026;-84
2020/12/06 05:43:06;;;;;;;45.13;25.42;;;;;;;;;;2049441;28;20027;-84
2020/12/06 05:44:24;;;;;;;49.20;26.23;;;;;;;;;;2053233;28;20039;-83
2020/12/06 05:45:45;;;;;;;48.95;26.58;;;;;;;;;;2052333;28;20023;-84
2020/12/06 05:47:13;;;;;;;48.63;26.52;;;;;;;;;;2050362;28;20077;-84
2020/12/06 05:48:33;;;;;;;47.72;26.45;;;;;;;;;;2047989;28;20027;-84
2020/12/06 05:49:52;;;;;;;48.63;27.15;;;;;;;;;;2053725;28;20023;-83
2020/12/06 05:51:12;;;;;;;49.25;25.45;;;;;;;;;;2050858;28;20488;-83
2020/12/06 05:52:32;;;;;;;48.22;27.05;;;;;;;;;;2050916;28;20598;-81
2020/12/06 05:53:52;;;;;;;49.13;26.92;;;;;;;;;;2055568;28;20026;-84
2020/12/06 05:55:11;;;;;;;50.58;28.80;;;;;;;;;;2056627;28;20046;-86
2020/12/06 05:56:31;;;;;;;51.95;27.83;;;;;;;;;;2055022;28;20031;-82
2020/12/06 05:57:51;;;;;;;50.65;27.00;;;;;;;;;;2049595;28;20055;-83
2020/12/06 05:59:10;;;;;;;50.20;27.23;;;;;;;;;;2053582;28;20027;-83
2020/12/06 06:00:29;;;;;;;48.95;26.30;;;;;;;;;;2052403;28;20039;-84
2020/12/06 06:01:52;;;;;;;51.33;27.58;;;;;;;;;;2053783;28;20027;-81
2020/12/06 06:03:11;;;;;;;52.80;27.98;;;;;;;;;;2056678;28;20026;-83
2020/12/06 06:04:31;;;;;;;50.88;28.20;;;;;;;;;;2051033;28;20028;-83
2020/12/06 06:05:52;;;;;;;55.92;27.73;;;;;;;;;;2054809;28;20035;-81
2020/12/06 06:07:18;;;;;;;59.85;28.92;;;;;;;;;;2053613;28;20491;-83
2020/12/06 06:08:38;;;;;;;50.03;26.95;;;;;;;;;;2055811;28;20038;-85
2020/12/06 06:10:03;;;;;;;51.58;26.95;;;;;;;;;;2055716;28;20121;-83
2020/12/06 06:11:23;;;;;;;52.05;27.45;;;;;;;;;;2057647;28;20042;-83
2020/12/06 06:12:44;;;;;;;55.40;28.88;;;;;;;;;;2057255;28;20022;-83
2020/12/06 06:14:04;;;;;;;52.30;27.23;;;;;;;;;;2055679;28;20039;-84
2020/12/06 06:15:24;;;;;;;47.33;28.23;;;;;;;;;;2053055;28;20026;-83
2020/12/06 06:16:44;;;;;;;51.15;28.02;;;;;;;;;;2056912;28;20031;-86
2020/12/06 06:18:04;;;;;;;51.88;27.23;;;;;;;;;;2053131;28;20027;-83
2020/12/06 06:19:24;;;;;;;57.22;28.48;;;;;;;;;;2055017;28;20022;-84
2020/12/06 06:20:43;;;;;;;49.55;27.38;;;;;;;;;;2053744;28;20026;-83
2020/12/06 06:22:02;;;;;;;53.22;28.77;;;;;;;;;;2052345;28;20105;-82
2020/12/06 06:23:21;;;;;;;53.30;26.63;;;;;;;;;;2053192;28;20500;-83
2020/12/06 06:24:40;;;;;;;54.35;28.05;;;;;;;;;;2051842;28;20046;-82
2020/12/06 06:25:59;;;;;;;50.70;27.85;;;;;;;;;;2051860;28;20039;-86
2020/12/06 06:27:18;;;;;;;63.33;28.42;;;;;;;;;;2056909;28;20018;-89
2020/12/06 06:28:37;;;;;;;54.10;28.08;;;;;;;;;;2050098;28;20026;-83
2020/12/06 06:29:56;;;;;;;52.58;26.30;;;;;;;;;;2054166;28;20027;-84
2020/12/06 06:31:16;;;;;;;55.17;28.50;;;;;;;;;;2053049;28;20035;-84
2020/12/06 06:32:35;;;;;;;47.70;27.50;;;;;;;;;;2057960;28;20117;-85
2020/12/06 06:33:55;;;;;;;52.42;28.60;;;;;;;;;;2053884;28;20121;-85
2020/12/06 06:35:13;;;;;;;51.38;27.98;;;;;;;;;;2054574;28;20117;-86
2020/12/06 06:36:34;;;;;;;50.53;26.75;;;;;;;;;;2048965;28;20045;-84
2020/12/06 06:37:53;;;;;;;53.15;27.98;;;;;;;;;;2053783;28;20066;-88
2020/12/06 06:39:19;;;;;;;49.88;27.13;;;;;;;;;;2051153;28;20031;-88
2020/12/06 06:40:39;;;;;;;48.70;27.02;;;;;;;;;;2054096;28;20023;-85
2020/12/06 06:42:07;;;;;;;49.78;27.63;;;;;;;;;;2056978;28;20628;-86
2020/12/06 06:43:27;;;;;;;53.65;28.20;;;;;;;;;;2057713;28;20023;-84
2020/12/06 06:44:55;;;;;;;57.28;28.63;;;;;;;;;;2055722;28;21282;-82
2020/12/06 06:46:18;;;;;;;53.83;28.08;;;;;;;;;;2061113;28;20042;-85
2020/12/06 06:47:37;;;;;;;;;;;;;;;;;;2057303;28;20035;-81
2020/12/06 06:48:56;;;;;;;53.30;27.17;;;;;;;;;;2056721;28;19961;-82
2020/12/06 06:50:15;;;;;;;50.45;28.05;;;;;;;;;;2054910;28;20038;-81
2020/12/06 06:51:35;;;;;;;55.55;28.77;;;;;;;;;;2053953;28;21183;-82
2020/12/06 06:52:55;;;;;;;51.10;27.65;;;;;;;;;;2056099;28;20055;-85
2020/12/06 06:54:24;;;;;;;50.72;27.55;;;;;;;;;;2053539;28;20479;-84
2020/12/06 06:55:52;;;;;;;53.30;27.98;;;;;;;;;;2050064;28;20027;-82
2020/12/06 06:57:12;;;;;;;49.35;26.92;;;;;;;;;;2050084;28;20031;-83
2020/12/06 06:58:32;;;;;;;52.47;29.02;;;;;;;;;;2057663;28;20058;-81
2020/12/06 06:59:54;;;;;;;53.40;28.20;;;;;;;;;;2052443;28;20018;-84
2020/12/06 07:01:15;;;;;;;52.60;29.10;;;;;;;;;;2053936;28;20023;-80
2020/12/06 07:02:35;;;;;;;51.50;27.90;;;;;;;;;;2057155;28;20034;-80
2020/12/06 07:03:54;;;;;;;51.53;28.90;;;;;;;;;;2054824;28;20062;-81
2020/12/06 07:05:13;;;;;;;54.10;29.13;;;;;;;;;;2051540;28;20419;-81
2020/12/06 07:06:45;;;;;;;50.72;29.27;;;;;;;;;;2057021;28;20043;-82
2020/12/06 07:08:09;;;;;;;50.83;28.20;;;;;;;;;;2055414;28;20022;-83
2020/12/06 07:09:29;;;;;;;50.95;28.73;;;;;;;;;;2056122;28;20034;-80
2020/12/06 07:10:48;;;;;;;56.40;29.63;;;;;;;;;;2054836;28;20039;-81
2020/12/06 07:12:08;;;;;;;61.45;29.52;;;;;;;;;;2051751;28;20054;-82
2020/12/06 07:13:28;;;;;;;54.60;29.88;;;;;;;;;;2050615;28;20051;-81
2020/12/06 07:14:49;;;;;;;52.53;28.70;;;;;;;;;;2050080;28;20043;-83
2020/12/06 07:16:09;;;;;;;49.72;28.63;;;;;;;;;;2055752;28;20162;-84
2020/12/06 07:17:27;;;;;;;52.88;28.45;;;;;;;;;;2052087;28;20050;-82
2020/12/06 07:18:46;;;;;;;60.13;29.67;;;;;;;;;;2054955;28;20086;-82
2020/12/06 07:20:06;;;;;;;51.42;28.63;;;;;;;;;;2056235;28;20022;-82
2020/12/06 07:21:31;;;;;;;51.83;28.88;;;;;;;;;;2054228;28;20507;-83
2020/12/06 07:22:52;;;;;;;55.53;29.05;;;;;;;;;;2055676;28;20019;-82
2020/12/06 07:24:13;;;;;;;53.80;29.40;;;;;;;;;;2052498;28;20027;-84
2020/12/06 07:25:31;;;;;;;54.30;29.67;;;;;;;;;;2052784;28;20027;-83
2020/12/06 07:26:50;;;;;;;50.72;29.05;;;;;;;;;;2053888;28;20015;-82
2020/12/06 07:28:09;;;;;;;56.08;30.02;;;;;;;;;;2056730;28;20101;-82
2020/12/06 07:29:28;;;;;;;54.13;29.67;;;;;;;;;;2053925;28;20026;-80
2020/12/06 07:30:47;;;;;;;57.92;31.17;;;;;;;;;;2056807;28;20450;-79
2020/12/06 07:32:06;;;;;;;55.35;30.35;;;;;;;;;;2055448;28;20388;-82
2020/12/06 07:33:25;;;;;;;54.83;28.45;;;;;;;;;;2056342;28;20038;-83
2020/12/06 07:34:44;;;;;;;54.92;29.40;;;;;;;;;;2054141;28;20467;-81
2020/12/06 07:36:03;;;;;;;52.22;28.52;;;;;;;;;;2060083;28;20042;-80
2020/12/06 07:37:23;;;;;;;54.92;31.02;;;;;;;;;;2059160;28;20022;-83
2020/12/06 07:38:43;;;;;;;56.28;30.25;;;;;;;;;;2060124;28;20110;-84
2020/12/06 07:40:06;;;;;;;54.72;30.08;;;;;;;;;;2056546;28;20446;-76
2020/12/06 07:41:26;;;;;;;57.72;29.77;;;;;;;;;;2058633;28;20118;-82
2020/12/06 07:42:45;;;;;;;55.00;29.50;;;;;;;;;;2060135;28;20105;-81
2020/12/06 07:44:04;;;;;;;49.90;29.20;;;;;;;;;;2060473;28;20019;-80
2020/12/06 07:45:26;;;;;;;55.50;30.40;;;;;;;;;;2057226;28;20030;-79